createdAt,value
2019-05-13T00:00:44.603Z,12.50
2019-05-13T00:02:49.509Z,12.50
2019-05-13T00:04:54.241Z,12.50
2019-05-13T00:06:59.009Z,12.40
2019-05-13T00:09:06.295Z,12.40
2019-05-13T00:11:13.474Z,12.40
2019-05-13T00:13:19.953Z,12.40
2019-05-13T00:15:26.443Z,12.40
2019-05-13T00:17:31.103Z,12.40
2019-05-13T00:19:35.766Z,12.30
2019-05-13T00:21:40.529Z,12.40
2019-05-13T00:23:45.192Z,12.30
2019-05-13T00:25:49.932Z,12.30
2019-05-13T00:27:54.689Z,12.30
2019-05-13T00:30:01.056Z,12.30
2019-05-13T00:32:05.710Z,12.30
2019-05-13T00:34:10.415Z,12.30
2019-05-13T00:36:19.633Z,12.30
2019-05-13T00:38:27.386Z,12.30
2019-05-13T00:40:33.728Z,12.30
2019-05-13T00:42:38.540Z,12.30
2019-05-13T00:44:44.308Z,12.30
2019-05-13T00:46:53.743Z,12.20
2019-05-13T00:49:00.678Z,12.20
2019-05-13T00:51:05.348Z,12.20
2019-05-13T00:53:10.093Z,12.20
2019-05-13T00:55:15.066Z,12.20
2019-05-13T00:57:19.744Z,12.20
2019-05-13T00:59:24.495Z,12.20
2019-05-13T01:01:29.217Z,12.20
2019-05-13T01:03:34.042Z,12.20
2019-05-13T01:05:39.860Z,12.10
2019-05-13T01:07:44.782Z,12.10
2019-05-13T01:09:49.578Z,12.10
2019-05-13T01:11:54.317Z,12.10
2019-05-13T01:14:00.429Z,12.10
2019-05-13T01:16:07.941Z,12.10
2019-05-13T01:18:14.320Z,12.10
2019-05-13T01:20:19.165Z,12.00
2019-05-13T01:22:24.034Z,12.00
2019-05-13T01:24:29.853Z,12.00
2019-05-13T01:26:34.549Z,12.00
2019-05-13T01:28:39.279Z,11.90
2019-05-13T01:30:44.107Z,11.90
2019-05-13T01:32:48.785Z,11.90
2019-05-13T01:34:54.024Z,11.90
2019-05-13T01:36:58.753Z,11.90
2019-05-13T01:39:05.683Z,11.90
2019-05-13T01:41:10.358Z,11.80
2019-05-13T01:43:15.097Z,11.80
2019-05-13T01:45:24.066Z,11.80
2019-05-13T01:47:28.936Z,11.70
2019-05-13T01:49:33.837Z,11.70
2019-05-13T01:51:38.687Z,11.70
2019-05-13T01:53:44.487Z,11.70
2019-05-13T01:55:49.145Z,11.70
2019-05-13T01:57:53.924Z,11.70
2019-05-13T02:00:14.028Z,11.70
2019-05-13T02:02:17.977Z,11.60
2019-05-13T02:04:24.463Z,11.60
2019-05-13T02:06:33.617Z,11.60
2019-05-13T02:08:38.148Z,11.60
2019-05-13T02:10:59.170Z,11.50
2019-05-13T02:13:04.105Z,11.50
2019-05-13T02:15:08.910Z,11.50
2019-05-13T02:17:14.631Z,11.40
2019-05-13T02:19:19.562Z,11.40
2019-05-13T02:21:25.131Z,11.40
2019-05-13T02:23:29.884Z,11.40
2019-05-13T02:25:55.032Z,11.30
2019-05-13T02:27:59.810Z,11.30
2019-05-13T02:30:05.918Z,11.30
2019-05-13T02:32:13.636Z,11.30
2019-05-13T02:34:17.176Z,11.20
2019-05-13T02:36:22.790Z,11.20
2019-05-13T02:38:30.656Z,11.20
2019-05-13T02:40:34.328Z,11.20
2019-05-13T02:42:39.067Z,11.10
2019-05-13T02:44:43.926Z,11.10
2019-05-13T02:46:48.706Z,11.10
2019-05-13T02:48:53.454Z,11.10
2019-05-13T02:50:58.164Z,11.10
2019-05-13T02:53:03.018Z,11.10
2019-05-13T02:55:07.758Z,11.10
2019-05-13T02:57:12.655Z,11.10
2019-05-13T02:59:22.665Z,11.10
2019-05-13T03:01:26.946Z,11.00
2019-05-13T03:03:32.788Z,11.00
2019-05-13T03:05:37.801Z,11.00
2019-05-13T03:07:42.939Z,11.00
2019-05-13T03:09:48.143Z,11.00
2019-05-13T03:11:53.860Z,11.00
2019-05-13T03:13:58.690Z,11.00
2019-05-13T03:16:14.008Z,11.00
2019-05-13T03:18:22.263Z,10.90
2019-05-13T03:20:25.149Z,10.90
2019-05-13T03:22:32.594Z,10.90
2019-05-13T03:24:39.086Z,10.80
2019-05-13T03:26:43.765Z,10.80
2019-05-13T03:28:52.423Z,10.80
2019-05-13T03:30:56.966Z,10.80
2019-05-13T03:33:10.365Z,10.70
2019-05-13T03:35:08.925Z,10.70
2019-05-13T03:37:16.854Z,10.70
2019-05-13T03:39:22.482Z,10.60
2019-05-13T03:41:27.849Z,10.60
2019-05-13T03:43:36.073Z,10.60
2019-05-13T03:45:43.584Z,10.60
2019-05-13T03:47:48.399Z,10.60
2019-05-13T03:50:02.315Z,10.60
2019-05-13T03:52:05.579Z,10.60
2019-05-13T03:54:12.655Z,10.50
2019-05-13T03:56:16.600Z,10.50
2019-05-13T03:58:23.848Z,10.50
2019-05-13T04:00:27.738Z,10.40
2019-05-13T04:02:32.698Z,10.50
2019-05-13T04:04:37.542Z,10.50
2019-05-13T04:06:43.012Z,10.40
2019-05-13T04:08:48.819Z,10.40
2019-05-13T04:10:53.550Z,10.40
2019-05-13T04:13:03.892Z,10.40
2019-05-13T04:15:07.842Z,10.40
2019-05-13T04:17:12.856Z,10.40
2019-05-13T04:19:17.644Z,10.40
2019-05-13T04:21:22.874Z,10.30
2019-05-13T04:23:27.778Z,10.30
2019-05-13T04:25:32.541Z,10.30
2019-05-13T04:27:37.317Z,10.30
2019-05-13T04:29:43.255Z,10.30
2019-05-13T04:31:48.213Z,10.30
2019-05-13T04:33:53.451Z,10.20
2019-05-13T04:35:58.325Z,10.20
2019-05-13T04:38:05.241Z,10.20
2019-05-13T04:40:12.605Z,10.20
2019-05-13T04:42:18.780Z,10.20
2019-05-13T04:44:24.171Z,10.20
2019-05-13T04:46:29.019Z,10.20
2019-05-13T04:48:34.208Z,10.10
2019-05-13T04:50:39.123Z,10.10
2019-05-13T04:52:43.885Z,10.10
2019-05-13T04:54:48.623Z,10.10
2019-05-13T04:56:53.296Z,10.10
2019-05-13T04:58:58.134Z,10.10
2019-05-13T05:01:24.137Z,10.10
2019-05-13T05:03:45.734Z,10.10
2019-05-13T05:06:22.744Z,10.00
2019-05-13T05:08:58.800Z,10.00
2019-05-13T05:11:42.571Z,10.00
2019-05-13T05:14:04.650Z,10.00
2019-05-13T05:16:27.114Z,10.00
2019-05-13T05:18:52.659Z,10.00
2019-05-13T05:21:14.692Z,10.00
2019-05-13T05:23:28.504Z,10.00
2019-05-13T05:26:02.306Z,10.00
2019-05-13T05:28:21.626Z,10.10
2019-05-13T05:31:04.039Z,10.10
2019-05-13T05:33:32.015Z,10.10
2019-05-13T05:35:46.072Z,10.10
2019-05-13T05:38:15.341Z,10.20
2019-05-13T05:40:30.983Z,10.20
2019-05-13T05:42:27.368Z,10.20
2019-05-13T05:44:35.007Z,10.20
2019-05-13T05:46:42.500Z,10.30
2019-05-13T05:48:49.968Z,10.30
2019-05-13T05:50:52.886Z,10.40
2019-05-13T05:52:57.664Z,10.40
2019-05-13T05:55:02.538Z,10.50
2019-05-13T05:57:07.614Z,10.60
2019-05-13T05:59:12.636Z,10.60
2019-05-13T06:01:18.419Z,10.70
2019-05-13T06:03:23.126Z,10.80
2019-05-13T06:05:27.901Z,10.90
2019-05-13T06:07:35.830Z,10.90
2019-05-13T06:09:42.357Z,11.00
2019-05-13T06:11:47.030Z,11.10
2019-05-13T06:13:54.434Z,11.10
2019-05-13T06:16:01.827Z,11.20
2019-05-13T06:18:11.537Z,11.30
2019-05-13T06:20:15.765Z,11.40
2019-05-13T06:22:21.644Z,11.50
2019-05-13T06:24:26.990Z,11.60
2019-05-13T06:26:31.706Z,11.70
2019-05-13T06:28:36.537Z,11.80
2019-05-13T06:30:44.388Z,12.00
2019-05-13T06:32:52.478Z,12.10
2019-05-13T06:34:57.973Z,12.30
2019-05-13T06:37:02.661Z,12.50
2019-05-13T06:39:12.122Z,12.60
2019-05-13T06:41:15.815Z,12.80
2019-05-13T06:43:21.135Z,13.00
2019-05-13T06:45:26.062Z,13.10
2019-05-13T06:47:36.068Z,13.30
2019-05-13T06:49:42.607Z,13.40
2019-05-13T06:51:46.141Z,13.60
2019-05-13T06:53:51.755Z,13.80
2019-05-13T06:55:56.680Z,13.90
2019-05-13T06:58:02.211Z,14.00
2019-05-13T07:00:08.789Z,14.10
2019-05-13T07:02:16.253Z,14.20
2019-05-13T07:04:21.941Z,14.30
2019-05-13T07:06:27.473Z,14.30
2019-05-13T07:08:32.345Z,14.40
2019-05-13T07:10:37.176Z,14.40
2019-05-13T07:12:42.024Z,14.50
2019-05-13T07:14:48.045Z,14.50
2019-05-13T07:16:52.764Z,14.60
2019-05-13T07:18:57.498Z,14.70
2019-05-13T07:21:02.418Z,14.70
2019-05-13T07:23:07.221Z,14.80
2019-05-13T07:25:11.983Z,14.80
2019-05-13T07:27:16.810Z,14.90
2019-05-13T07:29:24.226Z,15.00
2019-05-13T07:31:27.992Z,15.10
2019-05-13T07:33:32.765Z,15.20
2019-05-13T07:35:38.288Z,15.30
2019-05-13T07:37:43.208Z,15.40
2019-05-13T07:39:47.972Z,15.50
2019-05-13T07:41:52.776Z,15.60
2019-05-13T07:43:57.535Z,15.60
2019-05-13T07:46:04.014Z,15.70
2019-05-13T07:48:20.492Z,15.70
2019-05-13T07:50:15.163Z,15.80
2019-05-13T07:52:22.539Z,15.90
2019-05-13T07:54:28.056Z,16.00
2019-05-13T07:56:32.797Z,16.10
2019-05-13T07:58:37.875Z,16.20
2019-05-13T08:00:42.745Z,16.20
2019-05-13T08:02:47.504Z,16.30
2019-05-13T08:04:53.788Z,16.50
2019-05-13T08:06:58.582Z,16.50
2019-05-13T08:09:07.092Z,16.60
2019-05-13T08:11:13.000Z,16.80
2019-05-13T08:13:17.797Z,16.90
2019-05-13T08:15:22.537Z,17.00
2019-05-13T08:17:27.367Z,17.10
2019-05-13T08:19:32.710Z,17.20
2019-05-13T08:21:37.597Z,17.30
2019-05-13T08:23:42.341Z,17.40
2019-05-13T08:25:47.136Z,17.50
2019-05-13T08:27:51.879Z,17.50
2019-05-13T08:29:56.565Z,17.60
2019-05-13T08:32:02.808Z,17.80
2019-05-13T08:34:07.933Z,17.80
2019-05-13T08:36:12.706Z,17.90
2019-05-13T08:38:17.517Z,18.00
2019-05-13T08:40:23.388Z,18.10
2019-05-13T08:42:28.319Z,18.20
2019-05-13T08:44:33.150Z,18.20
2019-05-13T08:46:41.397Z,18.20
2019-05-13T08:48:46.365Z,18.30
2019-05-13T08:50:52.361Z,18.30
2019-05-13T08:52:57.221Z,18.40
2019-05-13T08:55:02.175Z,18.50
2019-05-13T08:57:07.177Z,18.50
2019-05-13T08:59:11.943Z,18.50
2019-05-13T09:01:16.735Z,18.60
2019-05-13T09:03:21.749Z,18.70
2019-05-13T09:05:26.591Z,18.70
2019-05-13T09:07:32.081Z,18.80
2019-05-13T09:09:37.076Z,18.90
2019-05-13T09:11:42.334Z,19.00
2019-05-13T09:13:48.207Z,19.10
2019-05-13T09:15:55.738Z,19.10
2019-05-13T09:18:02.382Z,19.20
2019-05-13T09:20:07.100Z,19.30
2019-05-13T09:22:12.557Z,19.30
2019-05-13T09:24:25.466Z,19.40
2019-05-13T09:26:23.781Z,19.40
2019-05-13T09:28:28.563Z,19.40
2019-05-13T09:30:34.556Z,19.50
2019-05-13T09:32:39.410Z,19.40
2019-05-13T09:34:44.112Z,19.40
2019-05-13T09:36:48.874Z,19.40
2019-05-13T09:38:56.299Z,19.30
2019-05-13T09:41:01.890Z,19.30
2019-05-13T09:43:06.862Z,19.20
2019-05-13T09:45:12.324Z,19.20
2019-05-13T09:47:17.345Z,19.10
2019-05-13T09:49:23.727Z,19.10
2019-05-13T09:51:32.362Z,19.00
2019-05-13T09:53:37.329Z,19.00
2019-05-13T09:55:42.135Z,18.90
2019-05-13T09:57:46.912Z,18.80
2019-05-13T09:59:52.381Z,18.80
2019-05-13T10:01:57.370Z,18.80
2019-05-13T10:04:02.974Z,18.70
2019-05-13T10:06:08.050Z,18.70
2019-05-13T10:08:12.757Z,18.60
2019-05-13T10:10:17.506Z,18.50
2019-05-13T10:12:24.275Z,18.40
2019-05-13T10:14:28.689Z,18.30
2019-05-13T10:16:33.446Z,18.20
2019-05-13T10:18:42.043Z,18.20
2019-05-13T10:20:57.891Z,18.10
2019-05-13T10:23:02.238Z,18.10
2019-05-13T10:25:11.410Z,18.00
2019-05-13T10:27:19.235Z,18.00
2019-05-13T10:29:24.106Z,18.00
2019-05-13T10:31:31.244Z,17.90
2019-05-13T10:33:35.247Z,17.90
2019-05-13T10:35:42.909Z,17.90
2019-05-13T10:37:52.310Z,17.80
2019-05-13T10:39:56.421Z,17.80
2019-05-13T10:42:03.683Z,17.80
2019-05-13T10:44:07.506Z,17.80
2019-05-13T10:46:15.049Z,17.80
2019-05-13T10:48:21.931Z,17.80
2019-05-13T10:50:27.748Z,17.90
2019-05-13T10:52:32.845Z,17.90
2019-05-13T10:54:38.746Z,17.90
2019-05-13T10:56:43.496Z,17.90
2019-05-13T10:58:48.256Z,17.90
2019-05-13T11:00:54.083Z,18.00
2019-05-13T11:02:59.111Z,18.00
2019-05-13T11:05:05.561Z,17.90
2019-05-13T11:07:12.010Z,18.00
2019-05-13T11:09:16.791Z,18.00
2019-05-13T11:11:22.052Z,18.00
2019-05-13T11:13:46.828Z,18.10
2019-05-13T11:15:41.133Z,18.10
2019-05-13T11:17:42.466Z,18.10
2019-05-13T11:19:46.318Z,18.10
2019-05-13T11:21:51.094Z,18.10
2019-05-13T11:23:56.036Z,18.10
2019-05-13T11:26:03.816Z,18.20
2019-05-13T11:28:12.309Z,18.20
2019-05-13T11:30:17.127Z,18.20
2019-05-13T11:32:22.404Z,18.30
2019-05-13T11:34:27.322Z,18.30
2019-05-13T11:36:33.297Z,18.30
2019-05-13T11:38:38.458Z,18.40
2019-05-13T11:40:43.258Z,18.40
2019-05-13T11:42:47.980Z,18.40
2019-05-13T11:44:53.032Z,18.40
2019-05-13T11:46:59.506Z,18.50
2019-05-13T11:49:05.727Z,18.50
2019-05-13T11:51:13.110Z,18.50
2019-05-13T11:53:31.571Z,18.50
2019-05-13T11:55:23.272Z,18.60
2019-05-13T11:57:28.098Z,18.60
2019-05-13T11:59:33.152Z,18.60
2019-05-13T12:01:42.593Z,18.70
2019-05-13T12:03:47.950Z,18.70
2019-05-13T12:07:59.093Z,18.80
2019-05-13T12:10:05.434Z,18.80
2019-05-13T12:12:13.210Z,18.80
2019-05-13T12:14:39.194Z,18.80
2019-05-13T12:16:23.059Z,18.90
2019-05-13T12:18:27.827Z,18.90
2019-05-13T12:20:32.954Z,18.90
2019-05-13T12:22:42.589Z,18.90
2019-05-13T12:24:47.653Z,18.90
2019-05-13T12:26:55.414Z,18.90
2019-05-13T12:29:03.151Z,18.90
2019-05-13T12:31:07.922Z,18.80
2019-05-13T12:33:13.830Z,18.80
2019-05-13T12:35:22.804Z,18.80
2019-05-13T12:37:27.796Z,18.80
2019-05-13T12:39:32.744Z,18.90
2019-05-13T12:41:37.522Z,18.90
2019-05-13T12:43:42.739Z,18.90
2019-05-13T12:45:47.616Z,18.90
2019-05-13T12:47:52.997Z,18.90
2019-05-13T12:49:57.952Z,18.90
2019-05-13T12:52:04.553Z,18.90
2019-05-13T12:54:13.551Z,18.90
2019-05-13T12:56:18.388Z,18.90
2019-05-13T12:58:23.916Z,18.90
2019-05-13T13:00:28.725Z,18.90
2019-05-13T13:02:33.674Z,18.90
2019-05-13T13:04:38.461Z,18.90
2019-05-13T13:06:45.504Z,18.90
2019-05-13T13:08:50.873Z,18.90
2019-05-13T13:10:55.817Z,18.90
2019-05-13T13:13:02.202Z,18.90
2019-05-13T13:15:35.508Z,18.90
2019-05-13T13:17:13.663Z,18.90
2019-05-13T13:19:18.417Z,18.90
2019-05-13T13:21:28.772Z,18.90
2019-05-13T13:23:29.670Z,18.90
2019-05-13T13:25:35.949Z,19.00
2019-05-13T13:30:02.270Z,19.00
2019-05-13T13:31:57.865Z,19.00
2019-05-13T13:34:11.850Z,19.00
2019-05-13T13:36:08.985Z,19.10
2019-05-13T13:38:16.457Z,19.10
2019-05-13T13:40:28.395Z,19.10
2019-05-13T13:42:33.051Z,19.10
2019-05-13T13:44:36.988Z,19.10
2019-05-13T13:46:44.486Z,19.10
2019-05-13T13:48:48.141Z,19.20
2019-05-13T13:50:55.744Z,19.20
2019-05-13T13:52:59.225Z,19.10
2019-05-13T13:55:08.801Z,19.10
2019-05-13T13:57:14.581Z,19.20
2019-05-13T13:59:23.423Z,19.20
2019-05-13T14:01:27.261Z,19.20
2019-05-13T14:03:34.576Z,19.20
2019-05-13T14:05:42.571Z,19.20
2019-05-13T14:06:32.810Z,18.80
2019-05-13T14:07:13.040Z,19.00
2019-05-13T14:07:46.214Z,19.20
2019-05-13T14:09:51.423Z,19.20
2019-05-13T14:11:56.244Z,19.20
2019-05-13T14:14:02.137Z,19.20
2019-05-13T14:16:22.504Z,19.20
2019-05-13T14:18:13.511Z,19.20
2019-05-13T14:20:18.262Z,19.30
2019-05-13T14:22:23.019Z,19.30
2019-05-13T14:24:28.037Z,19.30
2019-05-13T14:26:33.345Z,19.30
2019-05-13T14:28:41.921Z,19.30
2019-05-13T14:30:48.153Z,19.40
2019-05-13T14:32:54.001Z,19.40
2019-05-13T14:34:59.025Z,19.40
2019-05-13T14:37:08.155Z,19.40
2019-05-13T14:39:12.947Z,19.40
2019-05-13T14:41:17.681Z,19.40
2019-05-13T14:43:23.088Z,19.50
2019-05-13T14:45:27.888Z,19.50
2019-05-13T14:47:35.688Z,19.50
2019-05-13T14:49:42.321Z,19.50
2019-05-13T14:51:47.206Z,19.50
2019-05-13T14:53:52.171Z,19.50
2019-05-13T14:55:57.207Z,19.50
2019-05-13T14:58:05.002Z,19.60
2019-05-13T15:00:10.464Z,19.60
2019-05-13T15:02:15.414Z,19.60
2019-05-13T15:04:22.200Z,19.60
2019-05-13T15:06:26.558Z,19.60
2019-05-13T15:08:33.244Z,19.50
2019-05-13T15:10:37.968Z,19.60
2019-05-13T15:12:42.691Z,19.60
2019-05-13T15:14:52.048Z,19.60
2019-05-13T15:17:02.771Z,19.60
2019-05-13T15:19:02.913Z,19.60
2019-05-13T15:21:07.655Z,19.60
2019-05-13T15:23:12.435Z,19.60
2019-05-13T15:25:18.272Z,19.60
2019-05-13T15:27:23.195Z,19.60
2019-05-13T15:29:28.194Z,19.60
2019-05-13T15:31:32.935Z,19.60
2019-05-13T15:33:37.726Z,19.70
2019-05-13T15:35:42.406Z,19.70
2019-05-13T15:37:48.149Z,19.70
2019-05-13T15:39:52.930Z,19.80
2019-05-13T15:41:57.751Z,19.80
2019-05-13T15:44:05.509Z,19.80
2019-05-13T15:46:12.443Z,19.80
2019-05-13T15:48:16.666Z,19.90
2019-05-13T15:50:24.095Z,19.90
2019-05-13T15:52:31.704Z,19.90
2019-05-13T15:54:36.482Z,19.90
2019-05-13T15:56:41.264Z,19.90
2019-05-13T15:58:46.289Z,19.90
2019-05-13T16:00:52.338Z,19.90
2019-05-13T16:02:57.434Z,19.90
2019-05-13T16:05:04.862Z,19.90
2019-05-13T16:07:08.559Z,19.90
2019-05-13T16:09:14.290Z,19.90
2019-05-13T16:11:22.044Z,19.90
2019-05-13T16:13:27.045Z,19.90
2019-05-13T16:15:32.194Z,19.80
2019-05-13T16:17:41.549Z,19.90
2019-05-13T16:19:43.490Z,19.80
2019-05-13T16:21:48.246Z,19.80
2019-05-13T16:23:53.032Z,19.90
2019-05-13T16:25:58.142Z,19.80
2019-05-13T16:28:02.868Z,19.80
2019-05-13T16:30:07.652Z,19.80
2019-05-13T16:32:12.408Z,19.80
2019-05-13T16:34:17.254Z,19.80
2019-05-13T16:36:22.216Z,19.80
2019-05-13T16:38:27.066Z,19.80
2019-05-13T16:40:36.304Z,19.80
2019-05-13T16:42:42.059Z,19.80
2019-05-13T16:44:46.237Z,19.80
2019-05-13T16:46:53.846Z,19.80
2019-05-13T16:48:58.593Z,19.80
2019-05-13T16:51:04.434Z,19.80
2019-05-13T16:53:09.290Z,19.80
2019-05-13T16:55:14.186Z,19.80
2019-05-13T16:57:18.924Z,19.80
2019-05-13T16:59:23.601Z,19.70
2019-05-13T17:01:28.407Z,19.70
2019-05-13T17:03:35.916Z,19.70
2019-05-13T17:05:43.339Z,19.70
2019-05-13T17:07:48.109Z,19.60
2019-05-13T17:09:52.851Z,19.60
2019-05-13T17:11:58.657Z,19.60
2019-05-13T17:14:05.813Z,19.60
2019-05-13T17:16:10.059Z,19.60
2019-05-13T17:18:15.458Z,19.60
2019-05-13T17:20:21.538Z,19.60
2019-05-13T17:22:26.524Z,19.50
2019-05-13T17:24:34.287Z,19.50
2019-05-13T17:26:41.596Z,19.50
2019-05-13T17:28:45.491Z,19.50
2019-05-13T17:30:51.917Z,19.50
2019-05-13T17:32:56.621Z,19.40
2019-05-13T17:35:04.077Z,19.40
2019-05-13T17:37:11.574Z,19.40
2019-05-13T17:39:15.353Z,19.30
2019-05-13T17:41:21.369Z,19.30
2019-05-13T17:43:26.201Z,19.20
2019-05-13T17:45:31.354Z,19.20
2019-05-13T17:47:36.342Z,19.20
2019-05-13T17:49:41.858Z,19.10
2019-05-13T17:51:46.637Z,19.10
2019-05-13T17:53:52.057Z,19.10
2019-05-13T17:55:56.884Z,19.10
2019-05-13T17:58:01.670Z,19.00
2019-05-13T18:00:06.906Z,19.00
2019-05-13T18:02:11.925Z,19.00
2019-05-13T18:04:22.421Z,19.00
2019-05-13T18:06:26.475Z,18.90
2019-05-13T18:08:32.066Z,18.90
2019-05-13T18:10:37.093Z,18.80
2019-05-13T18:12:43.178Z,18.80
2019-05-13T18:14:51.637Z,18.80
2019-05-13T18:16:57.773Z,18.80
2019-05-13T18:19:03.924Z,18.70
2019-05-13T18:21:11.795Z,18.70
2019-05-13T18:23:16.709Z,18.60
2019-05-13T18:25:22.346Z,18.60
2019-05-13T18:27:27.315Z,18.60
2019-05-13T18:29:32.223Z,18.50
2019-05-13T18:31:37.154Z,18.50
2019-05-13T18:33:42.411Z,18.50
2019-05-13T18:35:48.665Z,18.40
2019-05-13T18:37:53.854Z,18.40
2019-05-13T18:39:59.313Z,18.30
2019-05-13T18:42:05.174Z,18.30
2019-05-13T18:44:12.259Z,18.30
2019-05-13T18:46:21.685Z,18.20
2019-05-13T18:48:27.702Z,18.20
2019-05-13T18:50:35.593Z,18.10
2019-05-13T18:52:42.084Z,18.10
2019-05-13T18:54:48.442Z,18.00
2019-05-13T18:56:53.251Z,18.00
2019-05-13T18:58:58.230Z,17.90
2019-05-13T19:01:03.021Z,17.90
2019-05-13T19:03:07.890Z,17.90
2019-05-13T19:05:14.370Z,17.80
2019-05-13T19:07:21.371Z,17.80
2019-05-13T19:09:26.403Z,17.80
2019-05-13T19:11:35.354Z,17.70
2019-05-13T19:13:41.679Z,17.70
2019-05-13T19:15:51.696Z,17.70
2019-05-13T19:17:58.147Z,17.60
2019-05-13T19:20:11.121Z,17.60
2019-05-13T19:22:16.717Z,17.50
2019-05-13T19:24:21.794Z,17.50
2019-05-13T19:26:27.684Z,17.50
2019-05-13T19:28:32.434Z,17.50
2019-05-13T19:30:37.250Z,17.40
2019-05-13T19:32:45.768Z,17.40
2019-05-13T19:34:53.474Z,17.40
2019-05-13T19:36:58.279Z,17.40
2019-05-13T19:39:05.414Z,17.30
2019-05-13T19:41:11.949Z,17.30
2019-05-13T19:43:18.919Z,17.30
2019-05-13T19:45:24.731Z,17.30
2019-05-13T19:47:30.889Z,17.20
2019-05-13T19:49:37.447Z,17.20
2019-05-13T19:51:44.325Z,17.20
2019-05-13T19:53:52.766Z,17.10
2019-05-13T19:55:58.342Z,17.10
2019-05-13T19:58:07.932Z,17.00
2019-05-13T20:00:14.447Z,17.00
2019-05-13T20:02:22.338Z,17.00
2019-05-13T20:04:28.285Z,16.90
2019-05-13T20:06:33.847Z,16.90
2019-05-13T20:08:41.280Z,16.80
2019-05-13T20:10:48.889Z,16.80
2019-05-13T20:12:58.155Z,16.80
2019-05-13T20:15:04.390Z,16.80
2019-05-13T20:17:09.228Z,16.70
2019-05-13T20:19:14.088Z,16.70
2019-05-13T20:21:20.009Z,16.70
2019-05-13T20:23:24.801Z,16.60
2019-05-13T20:25:31.246Z,16.60
2019-05-13T20:27:36.546Z,16.50
2019-05-13T20:29:41.791Z,16.50
2019-05-13T20:31:51.696Z,16.50
2019-05-13T20:33:56.172Z,16.40
2019-05-13T20:36:02.577Z,16.40
2019-05-13T20:38:07.350Z,16.40
2019-05-13T20:40:12.178Z,16.40
2019-05-13T20:42:17.015Z,16.30
2019-05-13T20:44:22.162Z,16.30
2019-05-13T20:46:26.882Z,16.20
2019-05-13T20:48:32.610Z,16.20
2019-05-13T20:50:41.205Z,16.20
2019-05-13T20:52:51.486Z,16.10
2019-05-13T20:55:01.786Z,16.10
2019-05-13T20:57:07.434Z,16.10
2019-05-13T20:59:15.232Z,16.10
2019-05-13T21:01:22.261Z,16.00
2019-05-13T21:03:31.424Z,16.00
2019-05-13T21:05:37.740Z,16.00
2019-05-13T21:07:43.521Z,15.90
2019-05-13T21:09:51.099Z,15.90
2019-05-13T21:11:55.366Z,15.90
2019-05-13T21:14:01.161Z,15.80
2019-05-13T21:16:06.053Z,15.80
2019-05-13T21:18:11.713Z,15.70
2019-05-13T21:20:22.015Z,15.70
2019-05-13T21:22:23.566Z,15.60
2019-05-13T21:24:31.692Z,15.60
2019-05-13T21:26:35.831Z,15.60
2019-05-13T21:28:41.851Z,15.60
2019-05-13T21:30:51.379Z,15.50
2019-05-13T21:32:56.887Z,15.50
2019-05-13T21:35:04.596Z,15.40
2019-05-13T21:37:11.390Z,15.40
2019-05-13T21:39:15.866Z,15.40
2019-05-13T21:41:21.173Z,15.30
2019-05-13T21:43:27.696Z,15.30
2019-05-13T21:45:35.240Z,15.20
2019-05-13T21:47:43.276Z,15.20
2019-05-13T21:49:51.537Z,15.20
2019-05-13T21:51:58.164Z,15.20
2019-05-13T21:54:04.048Z,15.10
2019-05-13T21:56:09.204Z,15.10
2019-05-13T21:58:14.301Z,15.10
2019-05-13T22:00:23.755Z,15.00
2019-05-13T22:02:31.695Z,15.00
2019-05-13T22:04:41.126Z,14.90
2019-05-13T22:06:48.810Z,14.90
2019-05-13T22:08:53.632Z,14.90
2019-05-13T22:10:58.431Z,14.90
2019-05-13T22:13:03.298Z,14.90
2019-05-13T22:15:08.072Z,14.90
2019-05-13T22:17:12.817Z,14.90
2019-05-13T22:19:18.665Z,14.90
2019-05-13T22:21:24.672Z,14.80
2019-05-13T22:23:32.191Z,14.80
2019-05-13T22:25:43.443Z,14.80
2019-05-13T22:27:48.249Z,14.80
2019-05-13T22:29:57.992Z,14.80
2019-05-13T22:32:03.905Z,14.80
2019-05-13T22:34:12.115Z,14.70
2019-05-13T22:36:21.142Z,14.70
2019-05-13T22:38:26.201Z,14.70
2019-05-13T22:40:32.251Z,14.70
2019-05-13T22:42:41.531Z,14.70
2019-05-13T22:44:46.457Z,14.60
2019-05-13T22:46:51.801Z,14.60
2019-05-13T22:48:56.695Z,14.60
2019-05-13T22:51:04.443Z,14.60
2019-05-13T22:53:09.262Z,14.60
2019-05-13T22:55:17.083Z,14.60
2019-05-13T22:57:22.021Z,14.60
2019-05-13T22:59:28.005Z,14.50
2019-05-13T23:01:33.651Z,14.50
2019-05-13T23:03:38.584Z,14.50
2019-05-13T23:05:43.349Z,14.50
2019-05-13T23:07:48.190Z,14.40
2019-05-13T23:09:53.109Z,14.40
2019-05-13T23:11:58.736Z,14.40
2019-05-13T23:14:09.953Z,14.40
2019-05-13T23:16:13.471Z,14.40
2019-05-13T23:18:18.668Z,14.30
2019-05-13T23:20:25.928Z,14.30
2019-05-13T23:22:32.784Z,14.30
2019-05-13T23:24:39.176Z,14.30
2019-05-13T23:26:46.016Z,14.20
2019-05-13T23:28:52.827Z,14.20
2019-05-13T23:30:58.146Z,14.20
2019-05-13T23:33:04.131Z,14.20
2019-05-13T23:35:11.164Z,14.20
2019-05-13T23:37:17.774Z,14.10
2019-05-13T23:39:22.838Z,14.10
2019-05-13T23:41:27.670Z,14.00
2019-05-13T23:43:32.535Z,14.00
2019-05-13T23:45:44.756Z,14.00
2019-05-13T23:47:51.030Z,14.00
2019-05-13T23:49:56.037Z,13.90
2019-05-13T23:52:02.521Z,13.90
2019-05-13T23:54:07.721Z,13.80
2019-05-13T23:56:15.351Z,13.80
2019-05-13T23:58:21.745Z,13.80
